LFSBLGKR

Guest
Details From LFSB - Bale-Mulhouse
To LGKR - IOANNIS KAPODISTRIAS INTL
Flight Number -
Tags decoded
Created
Modified
Stats Distance 720 nm / 1,334 km
Max Altitude 0 ft / 0 m
Waypoints 2
Social Downloads 3
Likes 0
Share VATSIM

Download

Looking for another format? Having issues loading an existing format? Contact us
Advertisement - Login to hide

Notes

Requested: LFSB LGKR

Route

LFSB LGKR

ID Type Via Altitude Latitude Longitude Leg Dist Tot Dist Heading (true) Name
O LFSB APT - 0 ft / 0 m 47.59581˚ 7.52481˚ - 0 nm - Bale-Mulhouse
O LGKR APT - 0 ft / 0 m 39.60178˚ 19.91191˚ 720 nm 720 nm 127° / 136° IOANNIS KAPODISTRIAS INTL

Altitude Profile

Advertisement - Login to hide

Weather


0- 5 10 15 20 25 30 35+ Temperature / ° C

Clouds and Precipitation
Forecast for 2018-05-28 00:00 UTC. Updated 3 hours ago

Ground ~20,000 ft ~40,000 ft Winds

LFSB

Details ICAO LFSB (MLH)
Name Bale-Mulhouse
Region France
Timezone Europe/Paris (UTC+2.0)
Stats Elevation 885 ft / 270 m (AMSL)
Location 47.595810° 7.524806°
Runways 2
Magnetic Variation 2.140° E

METAR

LFSB 280130Z AUTO 05005KT 020V090 9999 -RA ///TCU 17/16 Q1017 BECMG NSC

Decode

TAF

TAF LFSB 272300Z 2800/2824 34005KT CAVOK TEMPO 2810/2823 FEW060CB PROB40 TEMPO 2812/2822 29010G20KT TSRA SCT050CB

Decode

Departure Runways

ID Width Length Bearing (true) Bearing (mag) Surface Threshold Offset Overrun Length
08 193 ft / 59 m 5,956 ft / 1,816 m 76.91° 74.77° Concrete 0 ft / 0 m 0 ft / 0 m
15 197 ft / 60 m 12,802 ft / 3,902 m 154.86° 152.72° Concrete 0 ft / 0 m 0 ft / 0 m
26 193 ft / 59 m 5,956 ft / 1,816 m 256.93° 254.79° Concrete 722 ft / 220 m 0 ft / 0 m
33 197 ft / 60 m 12,802 ft / 3,902 m 334.88° 332.74° Concrete 3,675 ft / 1,120 m 0 ft / 0 m

LGKR

Details ICAO LGKR (CFU)
Name IOANNIS KAPODISTRIAS INTL
Region Greece
Timezone Europe/Athens (UTC+3.0)
Stats Elevation 6 ft / 2 m (AMSL)
Location 39.601779° 19.911908°
Runways 1
Magnetic Variation 4.143° E

METAR

LGKR 280120Z 00000KT 9999 FEW025 20/17 Q1015 NOSIG

Decode

TAF

TAF LGKR 272300Z 2800/2824 VRB05KT 9999 FEW020 TEMPO 2812/2815 26010KT

Decode

Destination Runways

ID Width Length Bearing (true) Bearing (mag) Surface Threshold Offset Overrun Length
17 148 ft / 45 m 7,815 ft / 2,382 m 168.81° 164.67° Asphalt 1,348 ft / 411 m 0 ft / 0 m
35 148 ft / 45 m 7,815 ft / 2,382 m 348.81° 344.67° Asphalt 213 ft / 65 m 0 ft / 0 m

Popular Alternatives